Tiempo atmosférico en la estación meteorológica de Cedrillas, Teruel (1380 m.)



Fecha
DESCASC
Temp. máxima en grados centígrados (hora)
DESCASC
Temp. mínima en grados centígrados (hora)
DESCASC
Temp. media en grados centígrados
DESCASC
Racha de viento máxima en m/sg (hora)
DESCASC
Velocidad máxima media en intervalos de 10 minutos(hora)
DESCASC
Precipitaciones diarias en mm
DESCASC
Precipitaciones de 00:00 a 06:00 en mm
DESCASC
Precipitaciones de 06:00 a 12:00 en mm
DESCASC
Precipitaciones de 12:00 a 18:00 en mm
DESCASC
Precipitaciones de 18:00 a 24:00 en mm
DESCASC
08-12-2019 9.9 (14:30) -0.2 (07:40) 4.8 14.17 (18:50) 10 (18:50) 0.4 0 0 0 0.4
07-12-2019 9.8 (16:00) -1.4 (07:40) 4.2 5 (12:20) 3.61 (11:50) 0.2 0 0.2 0 0
06-12-2019 8.9 (15:40) 2.2 (23:59) 5.5 5.83 (12:30) 4.17 (12:30) 0 0 0 0 0
05-12-2019 6.5 (14:30) 2.4 (00:00) 4.5 9.72 (00:30) 6.39 (06:20) 0.6 0.6 0 0 0
04-12-2019 3.2 (20:00) 0.3 (08:30) 1.8 12.22 (14:10) 8.89 (14:10) 8.8 1.4 4 1.8 1.6
03-12-2019 3.7 (14:30) -0.9 (-00:0) 1.4 7.22 (15:00) 4.72 (17:00) 1.2 0 0 0 1.2
02-12-2019 6.1 (14:10) 1 (00:00) 3.5 8.33 (07:20) 5.83 (15:40) 0 0 0 0 0
01-12-2019 7.2 (14:30) 1.5 (00:00) 4.3 9.44 (00:10) 6.11 (00:10) 1 1 0 0 0
30-11-2019 12.8 (15:50) 5 (00:00) 8.9 10 (23:59) 6.67 (16:50) 0.2 0 0 0 0.2
29-11-2019 12.3 (14:20) 5.7 (00:00) 9 9.72 (12:30) 6.11 (12:30) 0 0 0 0 0
28-11-2019 9.6 (15:10) 4.1 (00:00) 6.9 13.61 (06:30) 9.72 (06:20) 0 0 0 0 0
27-11-2019 10.5 (14:20) 3.9 (00:00) 7.2 17.78 (02:00) 12.22 (02:00) 0 0 0 0 0
26-11-2019 13.5 (12:30) 3.3 (00:00) 8.4 11.67 (23:10) 8.33 (23:20) 0 0 0 0 0
25-11-2019 9.3 (16:20) 3.5 (00:10) 6.4 11.94 (01:00) 8.06 (01:10) 0.2 0.2 0 0 0
24-11-2019 5.2 (16:40) 0.7 (00:00) 2.9 18.33 (00:20) 13.06 (00:20) 0 0 0 0 0
23-11-2019 5.2 (00:00) 0.6 (00:00) 2.9 22.22 (15:30) 14.44 (16:50) 2.6 0.6 2 0 0
22-11-2019 6.5 (21:00) 0.6 (00:00) 3.6 15 (22:40) 9.72 (23:00) 4.4 0 0 3.4 1
21-11-2019 5.9 (16:00) 0.1 (00:00) 3 8.33 (13:20) 5.83 (14:00) 0 0 0 0 0
20-11-2019 6.8 (14:20) -3.6 (07:20) 1.6 7.5 (15:20) 5.28 (15:20) 0.8 0 0 0 0.8
19-11-2019 4.7 (16:10) -3.8 (-00:0) 0.4 9.44 (02:00) 6.39 (01:00) 0 0 0 0 0
18-11-2019 2.3 (16:40) -1.7 (-00:0) 0.3 13.33 (10:50) 9.17 (14:50) 0.2 0.2 0 0 0
17-11-2019 6.9 (15:10) -1.7 (-00:0) 2.6 12.5 (06:00) 8.61 (18:00) 2.8 0 0 2.4 0.4
16-11-2019 3.2 (15:30) -2.4 (-00:0) 0.4 10.83 (20:50) 7.78 (22:00) 0.4 0 0.4 0 0
15-11-2019 2.3 (16:30) -2.4 (-00:0) -0.1 14.44 (08:20) 9.72 (08:40) 3.4 0 1.6 1.8 0
14-11-2019 5.5 (02:10) -1.1 (-00:0) 2.2 17.5 (07:00) 11.94 (07:00) 3.8 0 2.2 1.6 0
13-11-2019 7.1 (14:50) 2.5 (00:00) 4.8 18.33 (13:40) 10.56 (09:10) 11.4 8.2 3.2 0 0
12-11-2019 5.3 (15:30) -0.6 (-00:0) 2.4 18.89 (00:10) 11.94 (00:20) 0.2 0 0 0 0.2
11-11-2019 4.2 (13:10) -1.4 (01:10) 1.4 20.28 (23:30) 13.33 (23:30) 0.2 0 0.2 0 0

Gráficas

Temp. máximas Temp. mínimas Temp. medias Precipitaciones Rachas de viento máximas Velocidades máximas media en intervalos de 10 minutos

Datos horarios

Fecha y hora oficial Temperatura (ºC) Velocidad del viento (km/h) Dirección del viento Racha (km/h) Dirección de racha Precipitación (mm) Presión (hPa) Tendencia (hPa) Humedad (%)
2019-12-10 23:00:00 2.3 9 Este 17 Este 0 -- -- 61
2019-12-10 22:00:00 3.3 8 Nordeste 13 Nordeste 0 -- -- 57
2019-12-10 21:00:00 3.6 7 Nordeste 13 Nordeste 0 -- -- 58
2019-12-10 20:00:00 4.6 2 Este 15 Este 0 -- -- 52
2019-12-10 19:00:00 5 9 Nordeste 22 Noroeste 0 -- -- 49
2019-12-10 18:00:00 7.5 17 Noroeste 27 Noroeste 0 -- -- 43
2019-12-10 17:00:00 8.1 12 Norte 30 Noroeste 0 -- -- 44
2019-12-10 16:00:00 9.6 13 Noroeste 26 Norte 0 -- -- 34
2019-12-10 15:00:00 9.5 16 Nordeste 26 Norte 0 -- -- 41
2019-12-10 14:00:00 8.3 17 Norte 24 Norte 0 -- -- 39
2019-12-10 13:00:00 9 10 Noroeste 26 Noroeste 0 -- -- 38
2019-12-10 12:00:00 6.8 12 Norte 32 Norte 0 -- -- 52
2019-12-10 11:00:00 4.1 22 Norte 32 Norte 0 -- -- 60
2019-12-10 10:00:00 1.6 18 Norte 30 Norte 0 -- -- 68
2019-12-10 09:00:00 1.6 24 Norte 32 Norte 0 -- -- 68
2019-12-10 08:00:00 -0.5 17 Norte 29 Norte 0 -- -- 87
2019-12-10 07:00:00 -0.4 20 Norte 36 Norte 0 -- -- 90
2019-12-10 06:00:00 -0.1 21 Norte 37 Norte 0 -- -- 89
2019-12-10 05:00:00 -0.4 23 Norte 36 Norte 0 -- -- 94
2019-12-10 04:00:00 -0.6 22 Norte 31 Norte 0 -- -- 94
2019-12-10 03:00:00 0.1 24 Norte 43 Norte 0 -- -- 93
2019-12-10 02:00:00 -0.4 24 Norte 35 Norte 0 -- -- 93
2019-12-10 01:00:00 0.5 24 Norte 36 Norte 0 -- -- 91
2019-12-10 00:00:00 0.4 22 Norte 32 Norte 0 -- -- 92
2019-12-09 23:00:00 0.6 18 Norte 30 Norte 0 -- -- 94
2019-12-09 22:00:00 1.3 21 Norte 31 Norte 0 -- -- 90
2019-12-09 21:00:00 2.3 27 Noroeste 37 Noroeste 0 -- -- 82
2019-12-09 20:00:00 2.4 12 Norte 32 Noroeste 0 -- -- 85
2019-12-09 19:00:00 3.3 17 Norte 54 Oeste 0 -- -- 82
2019-12-09 18:00:00 4.1 19 Noroeste 47 Oeste 0 -- -- 78
2019-12-09 17:00:00 5.2 29 Noroeste 52 Noroeste 0 -- -- 72
2019-12-09 16:00:00 6.1 27 Noroeste 51 Noroeste 0 -- -- 65
2019-12-09 15:00:00 6 35 Noroeste 63 Noroeste 0 -- -- 60
2019-12-09 14:00:00 5.7 39 Noroeste 72 Oeste 0 -- -- 60
2019-12-09 13:00:00 5.6 48 Noroeste 69 Noroeste 0 -- -- 60
2019-12-09 12:00:00 5.5 45 Noroeste 72 Noroeste 0 -- -- 62
2019-12-09 11:00:00 5 28 Noroeste 60 Noroeste 0 -- -- 61
2019-12-09 10:00:00 4.5 32 Noroeste 49 Oeste 0 -- -- 60
2019-12-09 09:00:00 2.8 33 Noroeste 49 Oeste 0 -- -- 79
2019-12-09 08:00:00 1.8 16 Norte 39 Noroeste 0 -- -- 89
2019-12-09 07:00:00 2.1 16 Norte 49 Nordeste 0 -- -- 90
2019-12-09 06:00:00 2.9 22 Norte 39 Oeste 0 -- -- 81
2019-12-09 05:00:00 3.6 25 Noroeste 40 Oeste 0 -- -- 84
2019-12-09 04:00:00 3.8 35 Oeste 60 Oeste 0 -- -- 90
2019-12-09 03:00:00 3.9 27 Noroeste 42 Oeste 0 -- -- 92
2019-12-09 02:00:00 4.2 12 Norte 41 Noroeste 0 -- -- 93
2019-12-09 01:00:00 5 24 Noroeste 39 Noroeste 0 -- -- 92
2019-12-09 00:00:00 5.5 19 Norte 39 Noroeste 0 -- -- 100
2019-12-08 23:00:00 5.8 22 Noroeste 46 Noroeste 0 -- -- 99
2019-12-08 22:00:00 6.2 24 Noroeste 42 Noroeste 0.2 -- -- 98
2019-12-08 21:00:00 6.5 21 Noroeste 42 Noroeste 0.2 -- -- 96
2019-12-08 20:00:00 6.4 19 Noroeste 45 Oeste 0 -- -- 94
2019-12-08 19:00:00 6.8 34 Noroeste 51 Oeste 0 -- -- 93
2019-12-08 18:00:00 7 22 Noroeste 38 Oeste 0 -- -- 90
2019-12-08 17:00:00 7.5 23 Noroeste 40 Noroeste 0 -- -- 85
2019-12-08 16:00:00 8.9 17 Noroeste 31 Noroeste 0 -- -- 73
2019-12-08 15:00:00 9.5 18 Noroeste 27 Oeste 0 -- -- 71
2019-12-08 14:00:00 9.7 11 Noroeste 19 Noroeste 0 -- -- 67
2019-12-08 13:00:00 9.2 10 Noroeste 30 Oeste 0 -- -- 66
2019-12-08 12:00:00 8.4 19 Noroeste 31 Oeste 0 -- -- 69
2019-12-08 11:00:00 7.1 9 Norte 21 Oeste 0 -- -- 79
2019-12-08 10:00:00 4.6 7 Nordeste 10 Nordeste 0 -- -- 91
2019-12-08 09:00:00 1.5 7 Nordeste 10 Nordeste 0 -- -- 93
2019-12-08 08:00:00 -0.2 5 Este 8 Este 0 -- -- 97
2019-12-08 07:00:00 0.4 4 Nordeste 9 Este 0 -- -- 97
2019-12-08 06:00:00 1.4 9 Este 14 Este 0 -- -- 95
2019-12-08 05:00:00 0.9 6 Nordeste 9 Nordeste 0 -- -- 96
2019-12-08 04:00:00 0.7 6 Nordeste 9 Nordeste 0 -- -- 97
2019-12-08 03:00:00 0.3 5 Este 8 Este 0 -- -- 96
2019-12-08 02:00:00 0.9 5 Nordeste 7 Este 0 -- -- 97
2019-12-08 01:00:00 1.2 4 Nordeste 9 Este 0 -- -- 97
2019-12-08 00:00:00 0.9 5 Este 8 Este 0 -- -- 96
2019-12-07 23:00:00 0.5 3 Oeste 7 Sudeste 0 -- -- 98
2019-12-07 22:00:00 1 7 Este 9 Este 0 -- -- 99
2019-12-07 21:00:00 1.4 7 Este 10 Este 0 -- -- 96
2019-12-07 20:00:00 2.3 6 Este 12 Este 0 -- -- 95
2019-12-07 19:00:00 3.8 9 Este 12 Este 0 -- -- 91
2019-12-07 18:00:00 6 3 Oeste 11 Oeste 0 -- -- 83
2019-12-07 17:00:00 9 8 Oeste 13 Oeste 0 -- -- 73
2019-12-07 16:00:00 9.8 6 Norte 14 Norte 0 -- -- 63
2019-12-07 15:00:00 9.5 6 Norte 17 Nordeste 0 -- -- 65
2019-12-07 14:00:00 9.1 8 Norte 18 Nordeste 0 -- -- 72
2019-12-07 13:00:00 8.1 9 Norte 18 Norte 0 -- -- 79
2019-12-07 12:00:00 7.1 12 Norte 17 Norte 0 -- -- 83
2019-12-07 11:00:00 4.6 3 Oeste 9 Este 0 -- -- 94
2019-12-07 10:00:00 1.8 3 Nordeste 5 Nordeste 0.2 -- -- 97
2019-12-07 09:00:00 -0.7 3 Este 8 Este 0 -- -- 100
2019-12-07 08:00:00 -1.2 3 Norte 5 Este 0 -- -- 100
2019-12-07 07:00:00 -1 5 Este 13 Este 0 -- -- 99
2019-12-07 06:00:00 -0.8 3 Nordeste 5 Nordeste 0 -- -- 100
2019-12-07 05:00:00 -0.8 3 Este 8 Este 0 -- -- 100
2019-12-07 04:00:00 -0.7 3 Nordeste 5 Este 0 -- -- 100
2019-12-07 03:00:00 -0.4 5 Este 8 Este 0 -- -- 100
2019-12-07 02:00:00 -0.2 2 Este 4 Este 0 -- -- 100
2019-12-07 01:00:00 0.5 0 Calma 7 Sudeste 0 -- -- 99
2019-12-07 00:00:00 2.2 4 Este 10 Este 0 -- -- 100
2019-12-06 23:00:00 3 6 Este 12 Este 0 -- -- 100
2019-12-06 22:00:00 2.9 0 Calma 9 Sudeste 0 -- -- 99
2019-12-06 21:00:00 3.9 5 Sur 10 Sur 0 -- -- 99
2019-12-06 20:00:00 3.9 8 Sur 10 Sur 0 -- -- 99
2019-12-06 19:00:00 4.1 5 Sur 8 Sur 0 -- -- 95
2019-12-06 18:00:00 5.1 5 Sur 13 Sudoeste 0 -- -- 91
2019-12-06 17:00:00 7 13 Sudoeste 17 Sudoeste 0 -- -- 84
2019-12-06 16:00:00 8 8 Sur 14 Sur 0 -- -- 77
2019-12-06 15:00:00 8.2 9 Sur 18 Sur 0 -- -- 78
2019-12-06 14:00:00 8.2 12 Sur 19 Sur 0 -- -- 80
2019-12-06 13:00:00 6.6 10 Sur 21 Sur 0 -- -- 86
2019-12-06 12:00:00 7 12 Sur 18 Sudeste 0 -- -- 89
2019-12-06 11:00:00 5.1 8 Sudeste 15 Este 0 -- -- 98
2019-12-06 10:00:00 3.5 0 Calma 6 Este 0 -- -- 100
2019-12-06 09:00:00 2.8 3 Este 4 Este 0 -- -- 100
2019-12-06 08:00:00 2.5 0 Calma 3 Nordeste 0 -- -- 100
2019-12-06 07:00:00 2.4 0 Calma 9 Norte 0 -- -- 100
2019-12-06 06:00:00 2.4 6 Norte 9 Norte 0 -- -- 100
2019-12-06 05:00:00 3 7 Nordeste 12 Norte 0 -- -- 99
2019-12-06 04:00:00 3.5 9 Norte 15 Norte 0 -- -- 100
2019-12-06 03:00:00 3.4 7 Norte 13 Norte 0 -- -- 100
2019-12-06 02:00:00 3.4 6 Norte 12 Norte 0 -- -- 99
2019-12-06 01:00:00 3.6 8 Norte 12 Norte 0 -- -- 99
2019-12-06 00:00:00 3.6 9 Norte 18 Norte 0 -- -- 99
2019-12-05 23:00:00 3.6 8 Nordeste 24 Nordeste 0 -- -- 98
2019-12-05 22:00:00 3.6 14 Nordeste 23 Norte 0 -- -- 99
2019-12-05 21:00:00 3.9 13 Norte 25 Norte 0 -- -- 98
2019-12-05 20:00:00 4 10 Norte 17 Nordeste 0 -- -- 97
2019-12-05 19:00:00 4 13 Nordeste 21 Nordeste 0 -- -- 98
2019-12-05 18:00:00 4.2 14 Norte 19 Nordeste 0 -- -- 96
2019-12-05 17:00:00 4.8 14 Nordeste 19 Nordeste 0 -- -- 92
2019-12-05 16:00:00 5 10 Nordeste 28 Nordeste 0 -- -- 91
2019-12-05 15:00:00 6.3 21 Nordeste 28 Norte 0 -- -- 86
2019-12-05 14:00:00 5.3 19 Nordeste 26 Norte 0 -- -- 87
2019-12-05 13:00:00 4.9 13 Nordeste 30 Nordeste 0 -- -- 92
2019-12-05 12:00:00 4.6 18 Nordeste 30 Nordeste 0 -- -- 93
2019-12-05 11:00:00 4.1 16 Nordeste 26 Norte 0 -- -- 97
2019-12-05 10:00:00 3.6 19 Norte 29 Norte 0 -- -- 96
2019-12-05 09:00:00 3.2 14 Norte 23 Nordeste 0 -- -- 99
2019-12-05 08:00:00 3 12 Norte 23 Nordeste 0 -- -- 100
2019-12-05 07:00:00 2.6 13 Nordeste 32 Nordeste 0 -- -- 100
2019-12-05 06:00:00 2.6 20 Nordeste 28 Norte 0 -- -- 100
2019-12-05 05:00:00 2.5 17 Norte 31 Norte 0.2 -- -- 100
2019-12-05 04:00:00 2.5 20 Norte 30 Norte 0.2 -- -- 100
2019-12-05 03:00:00 3.1 16 Norte 25 Norte 0 -- -- 100
2019-12-05 02:00:00 3.2 19 Norte 32 Norte 0 -- -- 99
2019-12-05 01:00:00 3.1 20 Norte 35 Nordeste 0.2 -- -- 100
2019-12-05 00:00:00 3.1 19 Norte 36 Norte 0 -- -- 98
2019-12-04 23:00:00 3.1 24 Norte 38 Nordeste 0.2 -- -- 98
2019-12-04 22:00:00 2.8 25 Norte 39 Nordeste 0 -- -- 97
2019-12-04 21:00:00 3 23 Norte 36 Nordeste 0.4 -- -- 97
2019-12-04 20:00:00 3.2 24 Norte 40 Nordeste 0.4 -- -- 98
2019-12-04 19:00:00 2.9 15 Norte 31 Norte 0.6 -- -- 100
2019-12-04 18:00:00 2.2 15 Noroeste 28 Norte 1 -- -- 99
2019-12-04 17:00:00 2.4 19 Norte 26 Norte 0.6 -- -- 98
2019-12-04 16:00:00 2.6 17 Nordeste 38 Norte 0 -- -- 98
2019-12-04 15:00:00 2.5 28 Norte 44 Norte 0 -- -- 98
2019-12-04 14:00:00 2.5 28 Norte 43 Norte 0.2 -- -- 98
2019-12-04 13:00:00 2.5 20 Norte 30 Norte 0 -- -- 98
2019-12-04 12:00:00 2.5 17 Norte 32 Nordeste 0 -- -- 97
2019-12-04 11:00:00 1.9 21 Norte 30 Nordeste 0.2 -- -- 99
2019-12-04 10:00:00 1 18 Norte 33 Norte 1.4 -- -- 100
2019-12-04 09:00:00 0.3 13 Norte 23 Norte 0.4 -- -- 100
2019-12-04 08:00:00 0.8 18 Norte 28 Nordeste 1.8 -- -- 98
2019-12-04 07:00:00 1.4 18 Norte 34 Norte 0.2 -- -- 100
2019-12-04 06:00:00 1 22 Norte 33 Nordeste 0.2 -- -- 100
2019-12-04 05:00:00 1 16 Norte 24 Norte 0.8 -- -- 100
2019-12-04 04:00:00 1.3 12 Norte 21 Norte 0.2 -- -- 98
2019-12-04 03:00:00 1.7 10 Norte 20 Nordeste 0 -- -- 97
2019-12-04 02:00:00 1.9 10 Norte 22 Noroeste 0.2 -- -- 99
2019-12-04 01:00:00 1.6 15 Norte 28 Norte 0 -- -- 99
2019-12-04 00:00:00 1.4 9 Norte 22 Norte 0 -- -- 99
2019-12-03 23:00:00 1.4 7 Noroeste 19 Norte 0.2 -- -- 98
2019-12-03 22:00:00 1.8 14 Norte 19 Norte 0.2 -- -- 97
2019-12-03 21:00:00 1 4 Sudoeste 9 Nordeste 0.6 -- -- 96
2019-12-03 20:00:00 0.6 3 Nordeste 21 Norte 0 -- -- 95
2019-12-03 19:00:00 1 9 Norte 18 Norte 0.2 -- -- 94
2019-12-03 18:00:00 1.9 11 Norte 24 Norte 0 -- -- 87
2019-12-03 17:00:00 2.3 17 Norte 26 Norte 0 -- -- 85
2019-12-03 16:00:00 2.9 15 Norte 24 Norte 0 -- -- 84
2019-12-03 15:00:00 3.2 15 Norte 26 Norte 0 -- -- 86
2019-12-03 14:00:00 3.4 4 Noroeste 9 Norte 0 -- -- 88
2019-12-03 13:00:00 2.4 5 Norte 13 Norte 0 -- -- 88
2019-12-03 12:00:00 1.3 8 Norte 13 Norte 0 -- -- 92
2019-12-03 11:00:00 1.1 6 Noroeste 12 Norte 0 -- -- 93
2019-12-03 10:00:00 -0.1 8 Norte 12 Norte 0 -- -- 98
2019-12-03 09:00:00 -0.7 6 Norte 10 Noroeste 0 -- -- 99
2019-12-03 08:00:00 -0.9 6 Norte 13 Noroeste 0 -- -- 99
2019-12-03 07:00:00 -0.8 10 Norte 15 Norte 0 -- -- 99
2019-12-03 06:00:00 -0.4 9 Norte 18 Noroeste 0 -- -- 99
2019-12-03 05:00:00 -0.2 10 Norte 14 Norte 0 -- -- 100
2019-12-03 04:00:00 0.1 9 Norte 13 Nordeste 0 -- -- 99
2019-12-03 03:00:00 0.6 5 Norte 14 Norte 0 -- -- 97
2019-12-03 02:00:00 0.9 10 Norte 15 Norte 0 -- -- 96
2019-12-03 01:00:00 1.7 9 Norte 13 Noroeste 0 -- -- 93
2019-12-03 00:00:00 1.8 11 Norte 18 Norte 0 -- -- 95
2019-12-02 23:00:00 1.9 11 Norte 18 Norte 0 -- -- 95
2019-12-02 22:00:00 1.9 11 Norte 26 Norte 0 -- -- 95
2019-12-02 21:00:00 2.2 17 Norte 28 Norte 0 -- -- 95
2019-12-02 20:00:00 2.8 12 Nordeste 28 Nordeste 0 -- -- 93
2019-12-02 19:00:00 3 17 Norte 27 Nordeste 0 -- -- 93
2019-12-02 18:00:00 3.7 19 Nordeste 30 Nordeste 0 -- -- 85
2019-12-02 17:00:00 4.2 19 Nordeste 27 Nordeste 0 -- -- 83
2019-12-02 16:00:00 4.8 17 Nordeste 28 Norte 0 -- -- 81
2019-12-02 15:00:00 5 9 Sur 22 Sudeste 0 -- -- 85
2019-12-02 14:00:00 5.9 13 Nordeste 27 Nordeste 0 -- -- 77
2019-12-02 13:00:00 4.9 17 Nordeste 25 Nordeste 0 -- -- 84
2019-12-02 12:00:00 3.7 15 Norte 25 Nordeste 0 -- -- 85
2019-12-02 11:00:00 2.8 19 Nordeste 24 Norte 0 -- -- 90
2019-12-02 10:00:00 2.4 12 Norte 20 Norte 0 -- -- 92
2019-12-02 09:00:00 1.7 9 Norte 25 Nordeste 0 -- -- 92
2019-12-02 08:00:00 1.2 18 Nordeste 30 Nordeste 0 -- -- 90
2019-12-02 07:00:00 1 15 Nordeste 29 Nordeste 0 -- -- 93
2019-12-02 06:00:00 1.2 13 Norte 19 Nordeste 0 -- -- 95
2019-12-02 05:00:00 1.3 6 Norte 18 Norte 0 -- -- 97
2019-12-02 04:00:00 1.9 11 Norte 17 Norte 0 -- -- 94
2019-12-02 03:00:00 2.3 10 Norte 18 Norte 0 -- -- 92
2019-12-02 02:00:00 2.5 9 Norte 15 Norte 0 -- -- 90
2019-12-02 01:00:00 2.7 8 Norte 14 Norte 0 -- -- 88
2019-12-02 00:00:00 2.8 4 Norte 15 Norte 0 -- -- 90
2019-12-01 23:00:00 2.9 7 Norte 14 Noroeste 0 -- -- 89
2019-12-01 22:00:00 3 9 Norte 15 Norte 0 -- -- 87
2019-12-01 21:00:00 3 6 Norte 12 Norte 0 -- -- 86
2019-12-01 20:00:00 3 6 Norte 9 Noroeste 0 -- -- 83
2019-12-01 19:00:00 3.2 4 Nordeste 8 Nordeste 0 -- -- 83
2019-12-01 18:00:00 4 5 Norte 21 Noroeste 0 -- -- 80
2019-12-01 17:00:00 6.4 10 Noroeste 21 Noroeste 0 -- -- 67
2019-12-01 16:00:00 6.9 9 Norte 19 Noroeste 0 -- -- 61
2019-12-01 15:00:00 7 10 Noroeste 19 Norte 0 -- -- 64
2019-12-01 14:00:00 6.8 9 Noroeste 17 Noroeste 0 -- -- 64
2019-12-01 13:00:00 5.9 8 Oeste 13 Noroeste 0 -- -- 69
2019-12-01 12:00:00 5.2 7 Noroeste 18 Oeste 0 -- -- 73
2019-12-01 11:00:00 4.4 12 Oeste 18 Sudoeste 0 -- -- 80
2019-12-01 10:00:00 3.6 10 Sudoeste 15 Sudoeste 0 -- -- 86
2019-12-01 09:00:00 1.7 0 Calma 8 Este 0 -- -- 99
2019-12-01 08:00:00 2.2 0 Calma 9 Sur 0 -- -- 98
2019-12-01 07:00:00 2.7 3 Sudoeste 9 Sur 0 -- -- 98
2019-12-01 06:00:00 3.1 4 Sudoeste 12 Sudeste 0 -- -- 96
2019-12-01 05:00:00 3.1 12 Sudeste 19 Este 0.2 -- -- 99
2019-12-01 04:00:00 2.5 3 Nordeste 11 Norte 0.2 -- -- 98
2019-12-01 03:00:00 2.3 9 Norte 16 Nordeste 0.2 -- -- 97
2019-12-01 02:00:00 2.4 8 Norte 22 Nordeste 0.2 -- -- 97
2019-12-01 01:00:00 2.5 9 Norte 34 Oeste 0.2 -- -- 95
2019-12-01 00:00:00 5.5 18 Oeste 36 Oeste 0.2 -- -- 89
2019-11-30 23:00:00 6.5 16 Sur 25 Sur 0 -- -- 92
2019-11-30 22:00:00 6.9 18 Sur 27 Sur 0 -- -- 91
2019-11-30 21:00:00 6.8 15 Sur 30 Sur 0 -- -- 90
2019-11-30 20:00:00 7.3 15 Sur 26 Sur 0 -- -- 88
2019-11-30 19:00:00 7.8 16 Sur 24 Sur 0 -- -- 84
2019-11-30 18:00:00 8.8 16 Sur 27 Sudoeste 0 -- -- 80
2019-11-30 17:00:00 11.2 22 Sudoeste 32 Sudoeste 0 -- -- 69
2019-11-30 16:00:00 12.8 18 Sudoeste 27 Sudoeste 0 -- -- 63
2019-11-30 15:00:00 12.5 18 Sudoeste 27 Sudoeste 0 -- -- 68
2019-11-30 14:00:00 12.2 16 Sudoeste 25 Sudoeste 0 -- -- 72
2019-11-30 13:00:00 11.8 13 Sudoeste 25 Sudoeste 0 -- -- 72
2019-11-30 12:00:00 9.6 13 Sudoeste 23 Oeste 0 -- -- 82
2019-11-30 11:00:00 9.4 18 Sudoeste 24 Sudoeste 0 -- -- 85
2019-11-30 10:00:00 8.4 11 Sudoeste 18 Sur 0 -- -- 90
2019-11-30 09:00:00 6.1 8 Sur 19 Este 0 -- -- 96
2019-11-30 08:00:00 5.8 14 Sur 18 Sur 0 -- -- 96
2019-11-30 07:00:00 6.3 14 Sur 22 Sudoeste 0 -- -- 96
2019-11-30 06:00:00 5 3 Norte 13 Sudoeste 0 -- -- 94
2019-11-30 05:00:00 6.2 9 Sur 12 Sudoeste 0 -- -- 95
2019-11-30 04:00:00 6.7 9 Sudoeste 18 Sudoeste 0 -- -- 93
2019-11-30 03:00:00 7.8 12 Sudoeste 21 Sudoeste 0 -- -- 95
2019-11-30 02:00:00 7 8 Sudoeste 11 Sudoeste 0 -- -- 96
2019-11-30 01:00:00 7.5 6 Sudoeste 9 Sudoeste 0 -- -- 95
2019-11-30 00:00:00 7.7 0 Calma 8 Sudoeste 0 -- -- 92
2019-11-29 23:00:00 7.7 0 Calma 9 Este 0 -- -- 89
2019-11-29 22:00:00 8.2 0 Calma 6 Este 0 -- -- 87
2019-11-29 21:00:00 8.5 5 Este 7 Este 0 -- -- 85
2019-11-29 20:00:00 9.2 2 Sur 8 Noroeste 0 -- -- 82
2019-11-29 19:00:00 9.3 3 Este 9 Noroeste 0 -- -- 80
2019-11-29 18:00:00 9.9 3 Noroeste 17 Oeste 0 -- -- 77
2019-11-29 17:00:00 10.7 6 Noroeste 24 Oeste 0 -- -- 71
2019-11-29 16:00:00 11.4 12 Noroeste 23 Noroeste 0 -- -- 67
2019-11-29 15:00:00 11.3 10 Noroeste 23 Noroeste 0 -- -- 71
2019-11-29 14:00:00 11.3 14 Noroeste 27 Noroeste 0 -- -- 66
2019-11-29 13:00:00 10.4 18 Noroeste 35 Noroeste 0 -- -- 73
2019-11-29 12:00:00 10.3 21 Noroeste 31 Noroeste 0 -- -- 78
2019-11-29 11:00:00 10.1 17 Noroeste 27 Noroeste 0 -- -- 83
2019-11-29 10:00:00 8.7 7 Noroeste 14 Noroeste 0 -- -- 91
2019-11-29 09:00:00 7.4 0 Calma 13 Nordeste 0 -- -- 94
2019-11-29 08:00:00 7.2 2 Sudoeste 10 Sudeste 0 -- -- 91
2019-11-29 07:00:00 7.1 3 Noroeste 15 Oeste 0 -- -- 90
2019-11-29 06:00:00 7.1 3 Nordeste 12 Sudoeste 0 -- -- 90
2019-11-29 05:00:00 7.1 5 Este 22 Oeste 0 -- -- 88
2019-11-29 04:00:00 6.9 6 Noroeste 16 Norte 0 -- -- 88
2019-11-29 03:00:00 6.3 5 Oeste 13 Sudoeste 0 -- -- 89
2019-11-29 02:00:00 6.4 8 Sudeste 14 Sudeste 0 -- -- 88
2019-11-29 01:00:00 6.2 4 Nordeste 10 Nordeste 0 -- -- 88
2019-11-29 00:00:00 5.8 5 Sur 13 Sur 0 -- -- 87
2019-11-28 23:00:00 5.6 3 Noroeste 11 Este 0 -- -- 85
2019-11-28 22:00:00 5.4 6 Sudeste 17 Sudoeste 0 -- -- 84
2019-11-28 21:00:00 5.7 6 Sudoeste 16 Sudoeste 0 -- -- 82
2019-11-28 20:00:00 5.7 5 Sur 21 Noroeste 0 -- -- 81
2019-11-28 19:00:00 5.8 6 Este 15 Nordeste 0 -- -- 81
2019-11-28 18:00:00 6.5 3 Sur 22 Oeste 0 -- -- 80
2019-11-28 17:00:00 7.7 7 Noroeste 22 Sudoeste 0 -- -- 75
2019-11-28 16:00:00 8.3 13 Oeste 26 Oeste 0 -- -- 74
2019-11-28 15:00:00 9.1 13 Oeste 23 Sudoeste 0 -- -- 71
2019-11-28 14:00:00 9.4 17 Sudoeste 27 Oeste 0 -- -- 70
2019-11-28 13:00:00 8.6 17 Oeste 27 Oeste 0 -- -- 75
2019-11-28 12:00:00 8 8 Sudoeste 22 Oeste 0 -- -- 76
2019-11-28 11:00:00 8.1 19 Oeste 45 Oeste 0 -- -- 73
2019-11-28 10:00:00 7.4 28 Oeste 41 Oeste 0 -- -- 74
2019-11-28 09:00:00 5.5 18 Oeste 35 Oeste 0 -- -- 79
2019-11-28 08:00:00 5.1 16 Oeste 40 Oeste 0 -- -- 80
2019-11-28 07:00:00 5.1 25 Oeste 49 Oeste 0 -- -- 81
2019-11-28 06:00:00 4.8 27 Oeste 38 Oeste 0 -- -- 84
2019-11-28 05:00:00 4.3 23 Oeste 35 Oeste 0 -- -- 87
2019-11-28 04:00:00 4.4 22 Oeste 39 Oeste 0 -- -- 86
2019-11-28 03:00:00 5.1 31 Oeste 44 Oeste 0 -- -- 82
2019-11-28 02:00:00 4.8 19 Oeste 33 Sudoeste 0 -- -- 83
2019-11-28 01:00:00 4.7 17 Oeste 29 Oeste 0 -- -- 83
2019-11-28 00:00:00 4.1 8 Oeste 20 Oeste 0 -- -- 87
2019-11-27 23:00:00 4.4 3 Sur 15 Oeste 0 -- -- 85
2019-11-27 22:00:00 4.9 4 Oeste 22 Oeste 0 -- -- 80
2019-11-27 21:00:00 5.1 0 Calma 15 Oeste 0 -- -- 77
2019-11-27 20:00:00 5.4 8 Oeste 22 Oeste 0 -- -- 76
2019-11-27 19:00:00 6 8 Oeste 23 Sudoeste 0 -- -- 75
2019-11-27 18:00:00 6.7 14 Sudoeste 23 Sudoeste 0 -- -- 72
2019-11-27 17:00:00 7.9 14 Oeste 33 Oeste 0 -- -- 66
2019-11-27 16:00:00 9.4 22 Oeste 31 Sudoeste 0 -- -- 61
2019-11-27 15:00:00 10.4 17 Oeste 33 Sudoeste 0 -- -- 58
2019-11-27 14:00:00 10.4 15 Oeste 26 Oeste 0 -- -- 62
2019-11-27 06:00:00 -- -- -- -- -- -- -- -- --
2019-11-27 05:00:00 8.2 35 Oeste 51 Oeste 0 -- -- 81
2019-11-27 04:00:00 8 31 Oeste 47 Oeste 0 -- -- 84
2019-11-27 03:00:00 8.6 28 Oeste 55 Sudoeste 0 -- -- 77
2019-11-27 02:00:00 8.6 44 Sudoeste 64 Sudoeste 0 -- -- 84
2019-11-27 01:00:00 8.6 31 Sudoeste 47 Sudoeste 0 -- -- 93
2019-11-27 00:00:00 8.6 27 Sudoeste 42 Sudoeste 0 -- -- 95
2019-11-26 23:00:00 8.5 26 Sudoeste 40 Sur 0 -- -- 96
2019-11-26 22:00:00 8.5 18 Sur 33 Sudoeste 0 -- -- 94
2019-11-26 21:00:00 8.4 18 Sur 29 Sur 0 -- -- 90
2019-11-26 20:00:00 7.9 16 Sur 31 Sur 0 -- -- 87
2019-11-26 19:00:00 8.5 14 Sur 24 Sur 0 -- -- 85
2019-11-26 18:00:00 10 12 Sudoeste 27 Sudoeste 0 -- -- 79
2019-11-26 17:00:00 12.5 15 Sudoeste 28 Oeste 0 -- -- 70
2019-11-26 16:00:00 13.4 19 Sudoeste 32 Sudoeste 0 -- -- 68
2019-11-26 15:00:00 13.1 15 Sudoeste 28 Sudoeste 0 -- -- 70
2019-11-26 14:00:00 12.8 9 Sudoeste 23 Sudoeste 0 -- -- 65
2019-11-26 13:00:00 12.9 13 Sudoeste 17 Oeste 0 -- -- 60
2019-11-26 12:00:00 12.9 4 Sur 9 Sudoeste 0 -- -- 58
2019-11-26 11:00:00 11.6 4 Sudeste 10 Sudoeste 0 -- -- 56
2019-11-26 10:00:00 9 8 Este 15 Sudeste 0 -- -- 71
2019-11-26 09:00:00 5.5 3 Sudoeste 10 Este 0 -- -- 77
2019-11-26 08:00:00 7 3 Nordeste 17 Oeste 0 -- -- 69
2019-11-26 07:00:00 5.3 5 Sudoeste 18 Oeste 0 -- -- 77
2019-11-26 06:00:00 3.4 5 Este 10 Este 0 -- -- 94
2019-11-26 05:00:00 4.2 3 Sur 12 Este 0 -- -- 89
2019-11-26 04:00:00 4.2 5 Sudoeste 13 Sudoeste 0 -- -- 93
2019-11-26 03:00:00 4.5 4 Este 12 Oeste 0 -- -- 94
2019-11-26 02:00:00 6.6 8 Oeste 18 Sudoeste 0 -- -- 87
2019-11-26 01:00:00 6.9 6 Sur 13 Sudoeste 0 -- -- 86
2019-11-26 00:00:00 7.3 8 Sur 18 Este 0 -- -- 86
2019-11-25 23:00:00 7.1 8 Este 17 Este 0 -- -- 87
2019-11-25 22:00:00 6.2 6 Nordeste 13 Nordeste 0 -- -- 86
2019-11-25 21:00:00 5.9 0 Calma 10 Sudoeste 0 -- -- 85
2019-11-25 20:00:00 6.5 9 Norte 15 Norte 0 -- -- 81
2019-11-25 19:00:00 6.9 6 Norte 9 Norte 0 -- -- 81
2019-11-25 18:00:00 7.4 6 Noroeste 24 Noroeste 0 -- -- 78
2019-11-25 17:00:00 8.3 20 Noroeste 31 Noroeste 0 -- -- 72
2019-11-25 16:00:00 9.2 18 Noroeste 30 Noroeste 0 -- -- 69
2019-11-25 15:00:00 8.7 17 Noroeste 34 Oeste 0 -- -- 78
2019-11-25 14:00:00 8.8 22 Noroeste 42 Noroeste 0 -- -- 76
2019-11-25 13:00:00 8.8 21 Noroeste 34 Noroeste 0 -- -- 77
2019-11-25 12:00:00 7.8 19 Noroeste 39 Oeste 0 -- -- 84
2019-11-25 11:00:00 7.5 13 Noroeste 31 Noroeste 0 -- -- 88
2019-11-25 10:00:00 6.1 8 Norte 39 Noroeste 0 -- -- 92
2019-11-25 09:00:00 6.2 22 Noroeste 39 Oeste 0 -- -- 91
2019-11-25 08:00:00 5.7 19 Oeste 36 Oeste 0 -- -- 92
2019-11-25 07:00:00 5.5 18 Oeste 30 Noroeste 0 -- -- 91
2019-11-25 06:00:00 4.9 8 Oeste 23 Oeste 0 -- -- 93
2019-11-25 05:00:00 4.5 10 Sudoeste 33 Oeste 0.2 -- -- 94
2019-11-25 04:00:00 4.2 5 Sur 19 Oeste 0 -- -- 93
2019-11-25 03:00:00 3.9 14 Oeste 32 Oeste 0 -- -- 91
2019-11-25 02:00:00 4.1 7 Oeste 43 Oeste 0 -- -- 82
2019-11-25 01:00:00 5.1 24 Oeste 43 Oeste 0 -- -- 82
2019-11-25 00:00:00 3.6 7 Norte 17 Nordeste 0 -- -- 79
2019-11-24 23:00:00 3.5 10 Oeste 30 Oeste 0 -- -- 75
2019-11-24 22:00:00 3.3 13 Noroeste 28 Oeste 0 -- -- 74
2019-11-24 21:00:00 3.5 12 Noroeste 40 Sudoeste 0 -- -- 73
2019-11-24 20:00:00 3.3 14 Norte 33 Oeste 0 -- -- 76
2019-11-24 19:00:00 2.9 15 Oeste 29 Noroeste 0 -- -- 83
2019-11-24 18:00:00 3.4 13 Noroeste 22 Noroeste 0 -- -- 83
2019-11-24 17:00:00 4.7 18 Noroeste 39 Noroeste 0 -- -- 75
2019-11-24 16:00:00 5.1 22 Noroeste 43 Noroeste 0 -- -- 74
2019-11-24 15:00:00 5 27 Noroeste 49 Noroeste 0 -- -- 74
2019-11-24 14:00:00 4.1 21 Noroeste 41 Noroeste 0 -- -- 80
2019-11-24 13:00:00 3.3 24 Noroeste 44 Noroeste 0 -- -- 83
2019-11-24 12:00:00 2.7 30 Noroeste 43 Noroeste 0 -- -- 84
2019-11-24 11:00:00 1.8 23 Noroeste 49 Oeste 0 -- -- 88
2019-11-24 10:00:00 1 31 Noroeste 58 Oeste 0 -- -- 90
2019-11-24 09:00:00 0.8 25 Noroeste 48 Noroeste 0 -- -- 90
2019-11-24 08:00:00 0.7 24 Noroeste 53 Noroeste 0 -- -- 91
2019-11-24 07:00:00 1 27 Noroeste 62 Noroeste 0 -- -- 89
2019-11-24 06:00:00 1.1 26 Noroeste 59 Oeste 0 -- -- 90
2019-11-24 05:00:00 1.3 34 Noroeste 52 Oeste 0 -- -- 89
2019-11-24 04:00:00 1.3 24 Noroeste 58 Noroeste 0 -- -- 88
2019-11-24 03:00:00 1.6 30 Noroeste 55 Noroeste 0 -- -- 85
2019-11-24 02:00:00 1.9 37 Noroeste 53 Noroeste 0 -- -- 85
2019-11-24 01:00:00 1.7 34 Noroeste 66 Noroeste 0 -- -- 89
2019-11-24 00:00:00 1.9 39 Noroeste 64 Oeste 0 -- -- 84
2019-11-23 23:00:00 1.9 28 Noroeste 60 Oeste 0 -- -- 84
2019-11-23 22:00:00 2.2 39 Noroeste 58 Noroeste 0 -- -- 83
2019-11-23 21:00:00 2.4 43 Noroeste 64 Noroeste 0 -- -- 82
2019-11-23 20:00:00 2.4 37 Noroeste 60 Oeste 0 -- -- 81
2019-11-23 19:00:00 2.8 44 Noroeste 67 Noroeste 0 -- -- 77
2019-11-23 18:00:00 3.3 40 Noroeste 72 Noroeste 0 -- -- 73
2019-11-23 17:00:00 3.9 44 Noroeste 80 Oeste 0 -- -- 69
2019-11-23 16:00:00 4.5 39 Noroeste 80 Noroeste 0 -- -- 67
2019-11-23 15:00:00 3.7 42 Noroeste 68 Oeste 0 -- -- 74
2019-11-23 14:00:00 3.3 28 Noroeste 60 Noroeste 0 -- -- 85
2019-11-23 13:00:00 2.2 38 Noroeste 58 Noroeste 0 -- -- 90
2019-11-23 12:00:00 2 36 Noroeste 62 Oeste 0.2 -- -- 97
2019-11-23 11:00:00 1.5 32 Noroeste 51 Noroeste 0.6 -- -- 96
2019-11-23 10:00:00 0.8 30 Oeste 49 Noroeste 0.6 -- -- 98
2019-11-23 09:00:00 0.7 20 Oeste 43 Oeste 0.6 -- -- 97
2019-11-23 08:00:00 2.2 25 Oeste 46 Oeste 0 -- -- 91
2019-11-23 07:00:00 2.2 21 Oeste 52 Oeste 0 -- -- 90
2019-11-23 06:00:00 2.2 22 Oeste 36 Oeste 0.4 -- -- 96
2019-11-23 05:00:00 2.6 8 Oeste 32 Sudoeste 0.2 -- -- 96
2019-11-23 04:00:00 3.2 25 Sudoeste 37 Sudoeste 0 -- -- 93
2019-11-23 03:00:00 3.3 27 Sudoeste 37 Sudoeste 0 -- -- 92
2019-11-23 02:00:00 3.9 22 Sudoeste 44 Sudoeste 0 -- -- 94
2019-11-23 01:00:00 4.6 23 Sudoeste 47 Sudoeste 0 -- -- 91
2019-11-23 00:00:00 5.2 29 Sudoeste 50 Sudoeste 0.2 -- -- 92
2019-11-22 23:00:00 6.2 35 Sudoeste 54 Sur 0 -- -- 93
2019-11-22 22:00:00 6.3 24 Sur 47 Sudoeste 0 -- -- 92
2019-11-22 21:00:00 6.5 30 Sur 48 Sur 0 -- -- 94
2019-11-22 20:00:00 6.2 25 Sur 37 Sur 0.2 -- -- 100
2019-11-22 19:00:00 5.7 19 Sur 40 Sudeste 0.6 -- -- 100
2019-11-22 18:00:00 5.7 24 Sur 52 Sudeste 0.2 -- -- 100
2019-11-22 17:00:00 5.6 26 Sudeste 40 Sudeste 2.2 -- -- 99
2019-11-22 16:00:00 5.6 24 Sur 41 Sur 0.8 -- -- 99
2019-11-22 15:00:00 5.3 19 Sur 37 Sur 0.2 -- -- 99
2019-11-22 14:00:00 5 21 Sur 39 Sur 0 -- -- 99
2019-11-22 13:00:00 4.7 22 Sur 39 Sur 0 -- -- 98
2019-11-22 12:00:00 3.9 16 Sur 33 Sur 0 -- -- 98
2019-11-22 11:00:00 3.7 16 Sur 26 Sur 0 -- -- 97
2019-11-22 10:00:00 3.3 14 Sur 22 Sur 0 -- -- 93
2019-11-22 09:00:00 3.3 12 Sur 23 Sudeste 0 -- -- 95
2019-11-22 08:00:00 2.8 11 Sur 20 Sur 0 -- -- 96
2019-11-22 07:00:00 1.6 13 Sur 17 Sur 0 -- -- 97
2019-11-22 06:00:00 1.6 8 Sur 15 Sur 0 -- -- 95
2019-11-22 05:00:00 0.8 0 Calma 10 Este 0 -- -- 98
2019-11-22 04:00:00 1.5 4 Sudeste 8 Sudoeste 0 -- -- 97
2019-11-22 03:00:00 2.6 8 Sudeste 12 Este 0 -- -- 95
2019-11-22 02:00:00 3 5 Sur 10 Sur 0 -- -- 96
2019-11-22 01:00:00 3.2 6 Sur 10 Sudeste 0 -- -- 94
2019-11-22 00:00:00 3.3 4 Sur 15 Sudoeste 0 -- -- 94
2019-11-21 23:00:00 3.3 9 Sudoeste 15 Sur 0 -- -- 93
2019-11-21 22:00:00 3.6 12 Sur 18 Sur 0 -- -- 90
2019-11-21 21:00:00 3.8 6 Sur 10 Sudeste 0 -- -- 87
2019-11-21 20:00:00 4 8 Sur 14 Sur 0 -- -- 84
2019-11-21 19:00:00 4.3 11 Sur 21 Sudoeste 0 -- -- 83
2019-11-21 18:00:00 4.5 13 Sur 23 Sudoeste 0 -- -- 82
2019-11-21 17:00:00 5.1 9 Sur 25 Sudoeste 0 -- -- 79
2019-11-21 16:00:00 5.9 13 Sudoeste 26 Sudoeste 0 -- -- 75
2019-11-21 15:00:00 5.4 11 Sudoeste 29 Sudoeste 0 -- -- 78
2019-11-21 14:00:00 5.5 21 Sudoeste 30 Sudoeste 0 -- -- 77
2019-11-21 13:00:00 4.6 15 Sudoeste 26 Sudoeste 0 -- -- 82
2019-11-21 12:00:00 4.3 10 Sur 19 Sur 0 -- -- 83
2019-11-21 11:00:00 4 8 Sudoeste 18 Sudoeste 0 -- -- 83
2019-11-21 10:00:00 2.9 3 Sudeste 10 Norte 0 -- -- 85
2019-11-21 09:00:00 0.4 3 Oeste 8 Sudoeste 0 -- -- 94
2019-11-21 08:00:00 -- -- -- -- -- -- -- -- --
2019-11-21 07:00:00 -- -- -- -- -- -- -- -- --
2019-11-21 06:00:00 -- -- -- -- -- -- -- -- --
2019-11-21 05:00:00 -- -- -- -- -- -- -- -- --
2019-11-21 04:00:00 -- -- -- -- -- -- -- -- --
2019-11-21 03:00:00 -- -- -- -- -- -- -- -- --
2019-11-21 02:00:00 -- -- -- -- -- -- -- -- --
2019-11-21 01:00:00 -- -- -- -- -- -- -- -- --
2019-11-21 00:00:00 -- -- -- -- -- -- -- -- --
2019-11-20 23:00:00 -- -- -- -- -- -- -- -- --
2019-11-20 22:00:00 -- -- -- -- -- -- -- -- --
2019-11-20 21:00:00 -- -- -- -- -- -- -- -- --
2019-11-20 20:00:00 -- -- -- -- -- -- -- -- --
2019-11-20 19:00:00 3.3 7 Sur 17 Sur 0 -- -- 69
2019-11-20 18:00:00 3.2 9 Sudoeste 20 Sudoeste 0 -- -- 67
2019-11-20 17:00:00 5.3 17 Sur 24 Sur 0 -- -- 54
2019-11-20 16:00:00 6.2 13 Sudoeste 27 Sudoeste 0 -- -- 51
2019-11-20 15:00:00 6.7 15 Sudoeste 24 Sur 0 -- -- 40
2019-11-20 14:00:00 6.2 15 Sudoeste 26 Sudoeste 0 -- -- 48
2019-11-20 13:00:00 5.6 13 Sur 22 Sur 0 -- -- 62
2019-11-20 12:00:00 3.6 13 Sur 19 Sur 0 -- -- 73
2019-11-20 11:00:00 1.9 12 Sur 17 Sur 0 -- -- 80
2019-11-20 10:00:00 1 7 Sur 12 Sur 0 -- -- 85
2019-11-20 09:00:00 -1 5 Sur 9 Sur 0 -- -- 91
2019-11-20 08:00:00 -3.2 0 Calma 11 Sur 0 -- -- 93
2019-11-20 07:00:00 -3.2 2 Sudeste 4 Sudeste 0 -- -- 97
2019-11-20 06:00:00 -3.4 0 Calma 5 Oeste 0 -- -- 96
2019-11-20 05:00:00 -3 3 Nordeste 4 Este 0 -- -- 96
2019-11-20 04:00:00 -3.1 2 Sur 10 Este 0 -- -- 96
2019-11-20 03:00:00 -2.7 3 Este 4 Este 0 -- -- 96
2019-11-20 02:00:00 -2.7 2 Este 6 Este 0 -- -- 95
2019-11-20 01:00:00 -2.5 3 Nordeste 7 Este 0 -- -- 94
2019-11-20 00:00:00 -2 8 Sudeste 12 Este 0 -- -- 94
2019-11-19 23:00:00 -1.6 5 Este 9 Sudoeste 0 -- -- 92
2019-11-19 22:00:00 -1.7 4 Este 10 Este 0 -- -- 93
2019-11-19 21:00:00 -1.2 0 Calma 9 Este 0 -- -- 90
2019-11-19 20:00:00 -1 4 Este 14 Sudeste 0 -- -- 89
2019-11-19 19:00:00 -0.5 11 Este 15 Este 0 -- -- 86
2019-11-19 18:00:00 1.7 5 Norte 22 Noroeste 0 -- -- 76
2019-11-19 17:00:00 3.8 15 Noroeste 29 Noroeste 0 -- -- 65
2019-11-19 16:00:00 4.6 12 Noroeste 22 Oeste 0 -- -- 64
2019-11-19 15:00:00 4.3 13 Noroeste 24 Noroeste 0 -- -- 64
2019-11-19 14:00:00 4.1 14 Noroeste 24 Noroeste 0 -- -- 65
2019-11-19 13:00:00 2.5 12 Noroeste 30 Oeste 0 -- -- 74
2019-11-19 12:00:00 1.1 21 Oeste 31 Oeste 0 -- -- 81
2019-11-19 11:00:00 1.3 14 Noroeste 23 Noroeste 0 -- -- 80
2019-11-19 10:00:00 0 12 Norte 19 Norte 0 -- -- 87
2019-11-19 09:00:00 -1.5 12 Norte 17 Norte 0 -- -- 92
2019-11-19 08:00:00 -3.8 5 Norte 11 Nordeste 0 -- -- 96
2019-11-19 07:00:00 -3.2 8 Norte 13 Norte 0 -- -- 95
2019-11-19 06:00:00 -2.6 9 Norte 22 Nordeste 0 -- -- 94
2019-11-19 05:00:00 -2.3 11 Nordeste 19 Nordeste 0 -- -- 95
2019-11-19 04:00:00 -2.3 10 Norte 33 Noroeste 0 -- -- 93
2019-11-19 03:00:00 -2 18 Noroeste 33 Norte 0 -- -- 93
2019-11-19 02:00:00 -1.8 21 Noroeste 34 Noroeste 0 -- -- 91
2019-11-19 01:00:00 -1.4 23 Norte 34 Norte 0 -- -- 87
2019-11-19 00:00:00 -1.7 16 Norte 32 Norte 0 -- -- 88
2019-11-18 23:00:00 -1.2 21 Norte 33 Noroeste 0 -- -- 89
2019-11-18 22:00:00 -0.8 17 Norte 29 Norte 0 -- -- 90
2019-11-18 21:00:00 -0.8 9 Norte 27 Norte 0 -- -- 89
2019-11-18 20:00:00 -0.4 12 Norte 26 Norte 0 -- -- 89
2019-11-18 19:00:00 -0.4 16 Norte 28 Norte 0 -- -- 86
2019-11-18 18:00:00 0.1 18 Norte 46 Noroeste 0 -- -- 82
2019-11-18 17:00:00 1.8 22 Norte 41 Norte 0 -- -- 75
2019-11-18 16:00:00 1.8 32 Noroeste 47 Noroeste 0 -- -- 73
2019-11-18 15:00:00 2 30 Noroeste 47 Norte 0 -- -- 71
2019-11-18 14:00:00 1.8 31 Noroeste 42 Noroeste 0 -- -- 72
2019-11-18 13:00:00 1 27 Noroeste 46 Noroeste 0 -- -- 81
2019-11-18 12:00:00 0.9 25 Norte 45 Norte 0 -- -- 80
2019-11-18 11:00:00 0.4 25 Noroeste 48 Noroeste 0 -- -- 86
2019-11-18 10:00:00 0.1 22 Norte 44 Norte 0 -- -- 87
2019-11-18 09:00:00 0 14 Norte 40 Norte 0 -- -- 94
2019-11-18 08:00:00 0.2 21 Noroeste 37 Noroeste 0 -- -- 96
2019-11-18 07:00:00 0.3 22 Noroeste 34 Noroeste 0 -- -- 98
2019-11-18 06:00:00 0 18 Noroeste 33 Norte 0 -- -- 99
2019-11-18 05:00:00 0.3 16 Noroeste 37 Noroeste 0 -- -- 95
2019-11-18 04:00:00 0.5 21 Noroeste 42 Oeste 0 -- -- 94
2019-11-18 03:00:00 1.1 23 Noroeste 33 Noroeste 0 -- -- 92
2019-11-18 02:00:00 1.9 9 Noroeste 23 Nordeste 0 -- -- 93
2019-11-18 01:00:00 1.9 13 Norte 25 Nordeste 0.2 -- -- 94
2019-11-18 00:00:00 1.6 11 Norte 20 Norte 0.4 -- -- 97
2019-11-17 23:00:00 2 8 Este 25 Sudoeste 0 -- -- 97
2019-11-17 22:00:00 2.2 19 Oeste 31 Sudoeste 0 -- -- 95
2019-11-17 21:00:00 1.9 18 Oeste 32 Sudoeste 0 -- -- 95
2019-11-17 20:00:00 1.8 22 Sudoeste 32 Sudoeste 0 -- -- 94
2019-11-17 19:00:00 2.4 13 Sudoeste 45 Oeste 0 -- -- 94
2019-11-17 18:00:00 3.1 31 Oeste 44 Oeste 0 -- -- 88
2019-11-17 17:00:00 3.4 21 Oeste 31 Oeste 1.2 -- -- 92
2019-11-17 16:00:00 4 16 Sudoeste 39 Oeste 1.2 -- -- 88
2019-11-17 15:00:00 6.6 28 Oeste 43 Oeste 0 -- -- 72
2019-11-17 14:00:00 5.7 24 Oeste 38 Sudoeste 0 -- -- 69
2019-11-17 13:00:00 5.2 8 Oeste 29 Sudoeste 0 -- -- 68
2019-11-17 12:00:00 3.8 22 Oeste 34 Oeste 0 -- -- 72
2019-11-17 11:00:00 3.4 5 Este 12 Este 0 -- -- 71
2019-11-17 10:00:00 1.2 9 Nordeste 20 Nordeste 0 -- -- 77
2019-11-17 09:00:00 -0.1 15 Nordeste 29 Noroeste 0 -- -- 81
2019-11-17 08:00:00 -1 17 Norte 37 Oeste 0 -- -- 81
2019-11-17 07:00:00 -1 23 Noroeste 40 Noroeste 0 -- -- 80
2019-11-17 06:00:00 -1.5 26 Noroeste 45 Noroeste 0 -- -- 85
2019-11-17 05:00:00 -1.4 21 Noroeste 45 Oeste 0 -- -- 85
2019-11-17 04:00:00 -1.1 22 Noroeste 39 Noroeste 0 -- -- 84
2019-11-17 03:00:00 -0.6 27 Oeste 44 Oeste 0 -- -- 78
2019-11-17 02:00:00 -1.1 16 Noroeste 37 Noroeste 0 -- -- 85
2019-11-17 01:00:00 -0.9 14 Noroeste 27 Noroeste 0 -- -- 83
2019-11-17 00:00:00 -0.7 14 Noroeste 29 Noroeste 0 -- -- 82
2019-11-16 23:00:00 -0.4 17 Noroeste 36 Oeste 0 -- -- 79
2019-11-16 22:00:00 0 28 Noroeste 37 Oeste 0 -- -- 77
2019-11-16 21:00:00 0.4 25 Noroeste 39 Oeste 0 -- -- 77
2019-11-16 20:00:00 0 9 Norte 20 Nordeste 0 -- -- 83
2019-11-16 19:00:00 -0.1 9 Norte 26 Noroeste 0 -- -- 88
2019-11-16 18:00:00 0.5 17 Noroeste 28 Noroeste 0 -- -- 84
2019-11-16 17:00:00 1.6 20 Noroeste 35 Noroeste 0 -- -- 73
2019-11-16 16:00:00 2.9 20 Noroeste 32 Oeste 0 -- -- 64
2019-11-16 15:00:00 2.9 17 Noroeste 31 Noroeste 0 -- -- 68
2019-11-16 14:00:00 2.5 17 Noroeste 31 Noroeste 0 -- -- 68
2019-11-16 13:00:00 2.1 15 Noroeste 32 Noroeste 0 -- -- 68
2019-11-16 12:00:00 1 13 Norte 27 Norte 0 -- -- 75
2019-11-16 11:00:00 0.3 16 Norte 22 Norte 0.2 -- -- 76
2019-11-16 10:00:00 -0.8 11 Norte 24 Norte 0.2 -- -- 85
2019-11-16 09:00:00 -2.3 12 Norte 28 Norte 0 -- -- 90
2019-11-16 08:00:00 -2 19 Norte 32 Norte 0 -- -- 88
2019-11-16 07:00:00 -2.4 12 Norte 30 Norte 0 -- -- 91
2019-11-16 06:00:00 -1.5 19 Noroeste 28 Norte 0 -- -- 94
2019-11-16 05:00:00 -1 13 Noroeste 32 Noroeste 0 -- -- 95
2019-11-16 04:00:00 -0.8 20 Noroeste 33 Noroeste 0 -- -- 88
2019-11-16 03:00:00 -0.8 16 Noroeste 33 Noroeste 0 -- -- 90
2019-11-16 02:00:00 -0.4 21 Noroeste 32 Noroeste 0 -- -- 87
2019-11-16 01:00:00 -0.3 15 Noroeste 36 Norte 0 -- -- 91
2019-11-16 00:00:00 -0.2 23 Norte 36 Norte 0 -- -- 91
2019-11-15 23:00:00 0 14 Noroeste 24 Oeste 0 -- -- 90
2019-11-15 22:00:00 0.2 15 Noroeste 29 Noroeste 0 -- -- 87
2019-11-15 21:00:00 0.4 23 Noroeste 35 Oeste 0 -- -- 85
2019-11-15 20:00:00 0.7 22 Noroeste 33 Noroeste 0 -- -- 84
2019-11-15 19:00:00 0.6 14 Oeste 21 Oeste 0 -- -- 86
2019-11-15 18:00:00 0.7 14 Oeste 35 Noroeste 0 -- -- 84
2019-11-15 17:00:00 1.6 13 Noroeste 32 Noroeste 0 -- -- 83
2019-11-15 16:00:00 1.8 18 Noroeste 36 Oeste 0 -- -- 78
2019-11-15 15:00:00 2.2 18 Noroeste 35 Noroeste 0.4 -- -- 77
2019-11-15 14:00:00 1.4 16 Noroeste 35 Oeste 0.6 -- -- 82
2019-11-15 13:00:00 1.3 23 Noroeste 42 Oeste 0.8 -- -- 81
2019-11-15 12:00:00 0.8 13 Noroeste 28 Noroeste 1.2 -- -- 83
2019-11-15 11:00:00 0.1 6 Norte 30 Oeste 0.4 -- -- 84
2019-11-15 10:00:00 -0.8 12 Noroeste 46 Noroeste 0 -- -- 85
2019-11-15 09:00:00 -1.4 28 Noroeste 52 Oeste 0 -- -- 89
2019-11-15 08:00:00 -2.3 24 Noroeste 50 Noroeste 0 -- -- 91
2019-11-15 07:00:00 -2.2 28 Noroeste 45 Noroeste 0 -- -- 91
2019-11-15 06:00:00 -1.7 30 Noroeste 43 Noroeste 0 -- -- 91
2019-11-15 05:00:00 -1.7 17 Noroeste 39 Noroeste 0 -- -- 95
2019-11-15 04:00:00 -1.7 17 Noroeste 28 Noroeste 0 -- -- 96
2019-11-15 03:00:00 -1.8 18 Noroeste 35 Noroeste 0 -- -- 95
2019-11-15 02:00:00 -1.7 20 Oeste 35 Noroeste 0 -- -- 94
2019-11-15 01:00:00 -1.7 20 Noroeste 42 Noroeste 0 -- -- 93
2019-11-15 00:00:00 -1 18 Oeste 29 Oeste 0 -- -- 99
2019-11-14 23:00:00 -0.9 4 Sur 11 Sur 0 -- -- 99
2019-11-14 22:00:00 -0.9 8 Sur 14 Sur 0 -- -- 98
2019-11-14 21:00:00 -0.9 6 Sudeste 35 Sudoeste 0 -- -- 98
2019-11-14 20:00:00 -0.5 20 Sudoeste 32 Sudoeste 0 -- -- 90
2019-11-14 19:00:00 0.5 13 Sudoeste 37 Oeste 0 -- -- 76
2019-11-14 18:00:00 0.7 32 Oeste 55 Oeste 0 -- -- 79
2019-11-14 17:00:00 1.4 31 Oeste 45 Oeste 0 -- -- 72
2019-11-14 16:00:00 1.8 25 Oeste 54 Oeste 0 -- -- 70
2019-11-14 15:00:00 2.2 26 Oeste 46 Oeste 0.6 -- -- 77
2019-11-14 14:00:00 1.1 23 Oeste 40 Oeste 0.4 -- -- 83
2019-11-14 13:00:00 -0.1 23 Oeste 32 Oeste 0.6 -- -- 88
2019-11-14 12:00:00 -0.4 15 Oeste 38 Noroeste 0.2 -- -- 89
2019-11-14 11:00:00 -0.3 31 Noroeste 53 Oeste 0 -- -- 97
2019-11-14 10:00:00 -0.2 37 Noroeste 53 Oeste 1.6 -- -- 96
2019-11-14 09:00:00 4.4 26 Sudoeste 48 Sudoeste 0.4 -- -- 80
2019-11-14 08:00:00 4.7 30 Sudoeste 53 Sudoeste 0 -- -- 78
2019-11-14 07:00:00 5 43 Sudoeste 63 Sudoeste 0 -- -- 76
2019-11-14 06:00:00 5.2 37 Sudoeste 50 Sudoeste 0 -- -- 78
2019-11-14 05:00:00 5.1 28 Sudoeste 43 Sudoeste 0 -- -- 89
2019-11-14 04:00:00 5.3 32 Sudoeste 51 Sudoeste 0 -- -- 90
2019-11-14 03:00:00 5.3 26 Sudoeste 46 Sudoeste 0 -- -- 88
2019-11-14 02:00:00 5.4 27 Sudoeste 37 Sudoeste 0 -- -- 84
2019-11-14 01:00:00 4.4 17 Sur 25 Sur 0 -- -- 86
2019-11-14 00:00:00 4.5 11 Sur 25 Sudoeste 0 -- -- 81
2019-11-13 23:00:00 4.3 8 Sudoeste 15 Sudoeste 0 -- -- 81
2019-11-13 22:00:00 3.8 5 Sudeste 11 Sudeste 0 -- -- 81
2019-11-13 21:00:00 4.6 3 Sur 14 Nordeste 0 -- -- 77
2019-11-13 20:00:00 4.3 6 Nordeste 19 Este 0 -- -- 78
2019-11-13 19:00:00 4.4 5 Nordeste 20 Nordeste 0 -- -- 78
2019-11-13 18:00:00 5.3 12 Nordeste 22 Noroeste 0 -- -- 75
2019-11-13 17:00:00 6.8 14 Noroeste 40 Noroeste 0 -- -- 73
2019-11-13 16:00:00 6.1 25 Noroeste 46 Norte 0 -- -- 76
2019-11-13 15:00:00 6.8 28 Noroeste 50 Noroeste 0 -- -- 69
2019-11-13 14:00:00 6.5 34 Noroeste 66 Noroeste 0 -- -- 72
2019-11-13 13:00:00 6.1 34 Noroeste 57 Noroeste 0 -- -- 80
2019-11-13 12:00:00 5 31 Noroeste 49 Noroeste 0 -- -- 90
2019-11-13 11:00:00 4.8 25 Noroeste 58 Noroeste 0 -- -- 93
2019-11-13 10:00:00 5.6 32 Noroeste 54 Noroeste 0.8 -- -- 96
2019-11-13 09:00:00 6.2 35 Oeste 59 Oeste 0.6 -- -- 95
2019-11-13 08:00:00 4.6 13 Oeste 24 Sudoeste 0.6 -- -- 98
2019-11-13 07:00:00 4.6 18 Sudoeste 26 Sudoeste 1.2 -- -- 97
2019-11-13 06:00:00 4.8 15 Sudoeste 25 Sudoeste 3.6 -- -- 96
2019-11-13 05:00:00 4.7 16 Sudoeste 30 Oeste 3.6 -- -- 95
2019-11-13 04:00:00 4.3 15 Oeste 35 Oeste 0.8 -- -- 94
2019-11-13 03:00:00 4.1 8 Oeste 28 Oeste 0 -- -- 94
2019-11-13 02:00:00 3.9 13 Oeste 27 Oeste 0 -- -- 91
2019-11-13 01:00:00 2.7 7 Sudeste 16 Este 0.2 -- -- 92
2019-11-13 00:00:00 2.6 4 Este 14 Norte 0.2 -- -- 91
2019-11-12 23:00:00 2.8 6 Norte 17 Norte 0 -- -- 86
2019-11-12 22:00:00 3.1 6 Norte 20 Noroeste 0 -- -- 82
2019-11-12 21:00:00 2.9 9 Noroeste 32 Norte 0 -- -- 81
2019-11-12 20:00:00 2.7 19 Noroeste 40 Oeste 0 -- -- 84
2019-11-12 19:00:00 3.2 27 Noroeste 41 Noroeste 0 -- -- 80
2019-11-12 18:00:00 3.5 22 Noroeste 43 Noroeste 0 -- -- 73
2019-11-12 17:00:00 4.2 28 Noroeste 47 Noroeste 0 -- -- 68
2019-11-12 16:00:00 5.1 35 Noroeste 52 Noroeste 0 -- -- 69
2019-11-12 15:00:00 5.1 27 Noroeste 48 Noroeste 0 -- -- 71
2019-11-12 14:00:00 4.2 24 Noroeste 44 Noroeste 0 -- -- 76
2019-11-12 13:00:00 4.7 26 Noroeste 47 Noroeste 0 -- -- 76
2019-11-12 12:00:00 2.6 23 Noroeste 48 Noroeste 0 -- -- 89
2019-11-12 11:00:00 1.8 25 Noroeste 45 Noroeste 0 -- -- 90
2019-11-12 10:00:00 1.6 25 Noroeste 58 Noroeste 0 -- -- 87
2019-11-12 09:00:00 1 30 Noroeste 58 Noroeste 0 -- -- 90
2019-11-12 08:00:00 0.5 33 Noroeste 49 Norte 0 -- -- 90
2019-11-12 07:00:00 0 33 Noroeste 47 Noroeste 0 -- -- 91
2019-11-12 06:00:00 -0.2 32 Noroeste 49 Norte 0 -- -- 89
2019-11-12 05:00:00 -0.5 25 Norte 43 Noroeste 0 -- -- 90
2019-11-12 04:00:00 0.1 23 Norte 44 Noroeste 0 -- -- 88
2019-11-12 03:00:00 0.2 25 Noroeste 48 Norte 0 -- -- 86
2019-11-12 02:00:00 0.4 31 Noroeste 63 Norte 0 -- -- 86
2019-11-12 01:00:00 0.5 30 Noroeste 68 Noroeste 0 -- -- 89
2019-11-12 00:00:00 0.5 44 Noroeste 73 Noroeste 0 -- -- 86
2019-11-11 23:00:00 0.6 36 Noroeste 54 Noroeste 0 -- -- 88
2019-11-11 22:00:00 1.3 38 Noroeste 63 Noroeste 0 -- -- 86
2019-11-11 21:00:00 1.5 36 Noroeste 63 Noroeste 0 -- -- 84
2019-11-11 20:00:00 2.3 44 Noroeste 64 Noroeste 0 -- -- 83
2019-11-11 19:00:00 3.1 31 Noroeste 54 Noroeste 0 -- -- 89
2019-11-11 18:00:00 3.8 35 Noroeste 67 Noroeste 0 -- -- 95
2019-11-11 17:00:00 4.1 39 Noroeste 64 Noroeste 0 -- -- 92
2019-11-11 16:00:00 3.9 25 Noroeste 56 Oeste 0 -- -- 93
2019-11-11 15:00:00 3.8 46 Noroeste 66 Noroeste 0 -- -- 90
2019-11-11 14:00:00 4.1 35 Noroeste 58 Oeste 0 -- -- 87
2019-11-11 13:00:00 4 41 Noroeste 59 Noroeste 0 -- -- 82
2019-11-11 12:00:00 3.6 26 Noroeste 44 Noroeste 0 -- -- 83
2019-11-11 11:00:00 2.5 29 Noroeste 44 Noroeste 0.2 -- -- 86
2019-11-11 10:00:00 1.3 22 Norte 36 Norte 0 -- -- 91
2019-11-11 09:00:00 0.2 18 Norte 38 Noroeste 0 -- -- 95
2019-11-11 08:00:00 -0.5 21 Norte 32 Norte 0 -- -- 99
2019-11-11 07:00:00 -0.6 17 Norte 32 Noroeste 0 -- -- 94
2019-11-11 06:00:00 -0.7 19 Norte 33 Norte 0 -- -- 93
2019-11-11 05:00:00 -1 18 Norte 31 Noroeste 0 -- -- 94
2019-11-11 04:00:00 -1 20 Norte 41 Noroeste 0 -- -- 96
2019-11-11 03:00:00 -1.1 23 Noroeste 41 Oeste 0 -- -- 95
2019-11-11 02:00:00 -1.1 27 Noroeste 47 Noroeste 0 -- -- 94
2019-11-11 01:00:00 -1.3 22 Norte 43 Noroeste 0 -- -- 92
2019-11-11 00:00:00 -1.1 24 Noroeste 40 Noroeste 0 -- -- 89